createdAt,value
2023-01-23T00:01:40.038Z,8.20
2023-01-23T00:04:10.541Z,8.20
2023-01-23T00:06:37.925Z,8.20
2023-01-23T00:09:05.148Z,8.30
2023-01-23T00:11:35.058Z,8.50
2023-01-23T00:14:03.423Z,8.70
2023-01-23T00:16:37.502Z,8.90
2023-01-23T00:19:04.867Z,9.00
2023-01-23T00:21:32.296Z,9.10
2023-01-23T00:24:01.760Z,9.20
2023-01-23T00:26:37.856Z,9.00
2023-01-23T00:29:07.385Z,8.90
2023-01-23T00:31:39.127Z,9.10
2023-01-23T00:34:13.031Z,9.20
2023-01-23T00:36:44.252Z,9.20
2023-01-23T00:39:17.826Z,9.20
2023-01-23T00:41:46.692Z,9.20
2023-01-23T00:44:14.265Z,9.20
2023-01-23T00:46:41.646Z,9.30
2023-01-23T00:49:17.834Z,9.30
2023-01-23T00:51:47.579Z,9.30
2023-01-23T00:54:15.193Z,9.20
2023-01-23T00:56:42.839Z,9.10
2023-01-23T00:59:14.226Z,9.10
2023-01-23T01:01:45.961Z,9.10
2023-01-23T01:04:13.213Z,9.20
2023-01-23T01:06:40.502Z,9.10
2023-01-23T01:09:23.243Z,9.30
2023-01-23T01:11:50.925Z,9.30
2023-01-23T01:14:18.322Z,9.30
2023-01-23T01:16:46.924Z,9.20
2023-01-23T01:19:15.840Z,9.30
2023-01-23T01:21:43.409Z,9.40
2023-01-23T01:24:11.871Z,9.40
2023-01-23T01:26:40.388Z,9.50
2023-01-23T01:29:09.049Z,9.40
2023-01-23T01:31:36.501Z,9.50
2023-01-23T01:34:03.771Z,9.60
2023-01-23T01:36:35.514Z,9.70
2023-01-23T01:39:07.683Z,9.60
2023-01-23T01:41:35.915Z,9.50
2023-01-23T01:44:03.251Z,9.50
2023-01-23T01:46:33.420Z,9.50
2023-01-23T01:49:17.578Z,9.60
2023-01-23T01:52:09.809Z,9.70
2023-01-23T01:54:51.209Z,9.70
2023-01-23T01:57:31.895Z,9.70
2023-01-23T02:00:20.552Z,9.90
2023-01-23T02:02:55.556Z,9.90
2023-01-23T02:05:30.483Z,10.00
2023-01-23T02:08:19.706Z,10.00
2023-01-23T02:10:49.705Z,9.90
2023-01-23T02:13:22.886Z,9.90
2023-01-23T02:15:54.240Z,10.00
2023-01-23T02:18:27.600Z,9.90
2023-01-23T02:21:06.768Z,9.90
2023-01-23T02:23:54.707Z,9.90
2023-01-23T02:26:28.073Z,10.00
2023-01-23T02:28:56.230Z,9.90
2023-01-23T02:31:23.823Z,9.90
2023-01-23T02:33:56.658Z,9.90
2023-01-23T02:36:30.281Z,9.90
2023-01-23T02:39:01.939Z,9.80
2023-01-23T02:41:33.322Z,9.80
2023-01-23T02:44:16.537Z,9.80
2023-01-23T02:46:54.297Z,9.80
2023-01-23T02:49:24.581Z,9.80
2023-01-23T02:51:53.809Z,9.70
2023-01-23T02:54:22.713Z,9.70
2023-01-23T02:56:51.519Z,9.80
2023-01-23T02:59:37.312Z,10.20
2023-01-23T03:02:06.383Z,10.30
2023-01-23T03:04:42.085Z,10.40
2023-01-23T03:07:11.877Z,10.00
2023-01-23T03:09:39.842Z,9.90
2023-01-23T03:12:07.438Z,9.80
2023-01-23T03:14:35.215Z,9.80
2023-01-23T03:17:02.793Z,9.70
2023-01-23T03:19:31.326Z,9.70
2023-01-23T03:22:01.626Z,9.60
2023-01-23T03:24:33.973Z,9.70
2023-01-23T03:27:01.199Z,9.70
2023-01-23T03:29:46.892Z,9.70
2023-01-23T03:32:15.266Z,9.70
2023-01-23T03:34:43.294Z,9.60
2023-01-23T03:37:12.545Z,9.70
2023-01-23T03:40:00.646Z,9.80
2023-01-23T03:42:35.806Z,9.80
2023-01-23T03:45:09.115Z,9.80
2023-01-23T03:47:43.787Z,9.80
2023-01-23T03:50:11.227Z,9.70
2023-01-23T03:52:38.492Z,9.70
2023-01-23T03:55:06.129Z,9.80
2023-01-23T03:57:42.469Z,9.80
2023-01-23T04:00:10.757Z,9.70
2023-01-23T04:02:38.056Z,9.80
2023-01-23T04:05:05.650Z,9.80
2023-01-23T04:07:32.840Z,9.90
2023-01-23T04:10:00.122Z,9.90
2023-01-23T04:12:27.269Z,10.00
2023-01-23T04:14:54.561Z,9.90
2023-01-23T04:17:21.697Z,10.00
2023-01-23T04:19:48.968Z,10.10
2023-01-23T04:22:16.304Z,10.10
2023-01-23T04:24:43.619Z,10.10
2023-01-23T04:27:11.962Z,10.10
2023-01-23T04:29:41.608Z,10.20
2023-01-23T04:32:10.991Z,10.10
2023-01-23T04:34:38.228Z,10.20
2023-01-23T04:37:06.254Z,10.10
2023-01-23T04:39:33.605Z,10.00
2023-01-23T04:42:00.934Z,9.90
2023-01-23T04:44:28.203Z,9.90
2023-01-23T04:46:55.405Z,9.90
2023-01-23T04:49:24.502Z,9.90
2023-01-23T04:51:54.882Z,9.90
2023-01-23T04:54:22.513Z,10.00
2023-01-23T04:56:49.769Z,10.00
2023-01-23T04:59:17.234Z,9.90
2023-01-23T05:01:45.239Z,10.00
2023-01-23T05:04:19.923Z,9.90
2023-01-23T05:06:51.105Z,10.00
2023-01-23T05:09:18.551Z,10.10
2023-01-23T05:11:46.025Z,10.20
2023-01-23T05:14:13.524Z,10.10
2023-01-23T05:16:46.981Z,10.10
2023-01-23T05:19:14.843Z,10.10
2023-01-23T05:21:42.754Z,10.20
2023-01-23T05:24:12.947Z,10.20
2023-01-23T05:26:40.326Z,10.20
2023-01-23T05:29:07.485Z,10.20
2023-01-23T05:31:34.802Z,10.30
2023-01-23T05:34:02.077Z,10.30
2023-01-23T05:36:37.483Z,10.30
2023-01-23T05:39:05.848Z,10.40
2023-01-23T05:41:33.121Z,10.50
2023-01-23T05:44:00.275Z,10.70
2023-01-23T05:46:27.683Z,10.70
2023-01-23T05:48:55.098Z,10.60
2023-01-23T05:51:23.636Z,10.40
2023-01-23T05:53:52.053Z,10.30
2023-01-23T05:56:19.267Z,10.20
2023-01-23T05:58:48.952Z,10.20
2023-01-23T06:01:22.204Z,10.20
2023-01-23T06:03:49.592Z,10.20
2023-01-23T06:06:16.842Z,10.30
2023-01-23T06:08:44.167Z,10.20
2023-01-23T06:11:11.415Z,10.20
2023-01-23T06:13:38.583Z,10.20
2023-01-23T06:16:10.658Z,10.20
2023-01-23T06:18:55.030Z,10.30
2023-01-23T06:21:26.549Z,10.30
2023-01-23T06:23:53.814Z,10.30
2023-01-23T06:26:24.915Z,10.30
2023-01-23T06:28:52.237Z,10.30
2023-01-23T06:31:19.616Z,10.30
2023-01-23T06:34:04.429Z,10.40
2023-01-23T06:36:31.801Z,10.60
2023-01-23T06:39:11.715Z,10.50
2023-01-23T06:41:39.095Z,10.50
2023-01-23T06:44:07.929Z,10.40
2023-01-23T06:46:35.567Z,10.40
2023-01-23T06:49:06.112Z,10.40
2023-01-23T06:51:36.171Z,10.30
2023-01-23T06:54:03.460Z,10.20
2023-01-23T06:56:57.498Z,10.20
2023-01-23T06:59:29.916Z,10.20
2023-01-23T07:01:57.273Z,10.20
2023-01-23T07:04:24.590Z,10.20
2023-01-23T07:06:58.735Z,10.20
2023-01-23T07:09:25.954Z,10.20
2023-01-23T07:12:01.184Z,10.10
2023-01-23T07:14:30.999Z,10.20
2023-01-23T07:16:58.269Z,10.10
2023-01-23T07:19:25.806Z,10.20
2023-01-23T07:21:53.582Z,10.10
2023-01-23T07:24:20.812Z,10.10
2023-01-23T07:26:48.226Z,10.10
2023-01-23T07:29:15.439Z,10.10
2023-01-23T07:31:42.695Z,10.10
2023-01-23T07:34:22.765Z,10.20
2023-01-23T07:36:57.065Z,10.20
2023-01-23T07:39:24.650Z,10.10
2023-01-23T07:41:52.033Z,10.20
2023-01-23T07:44:30.617Z,10.20
2023-01-23T07:46:59.972Z,10.20
2023-01-23T07:49:33.721Z,10.20
2023-01-23T07:52:00.997Z,10.20
2023-01-23T07:54:30.191Z,10.20
2023-01-23T07:56:58.438Z,10.30
2023-01-23T07:59:28.754Z,10.30
2023-01-23T08:01:59.671Z,10.20
2023-01-23T08:04:27.269Z,10.20
2023-01-23T08:06:54.754Z,10.30
2023-01-23T08:09:23.022Z,10.30
2023-01-23T08:11:52.783Z,10.20
2023-01-23T08:14:20.808Z,10.20
2023-01-23T08:16:53.023Z,10.30
2023-01-23T08:19:25.466Z,10.30
2023-01-23T08:21:59.686Z,10.40
2023-01-23T08:24:27.257Z,10.40
2023-01-23T08:27:06.066Z,10.50
2023-01-23T08:29:33.670Z,10.50
2023-01-23T08:32:01.140Z,10.50
2023-01-23T08:34:37.579Z,10.50
2023-01-23T08:37:09.136Z,10.60
2023-01-23T08:39:38.733Z,10.60
2023-01-23T08:42:11.910Z,10.60
2023-01-23T08:44:44.199Z,10.60
2023-01-23T08:47:13.606Z,10.60
2023-01-23T08:49:43.909Z,10.60
2023-01-23T08:52:11.172Z,10.60
2023-01-23T08:54:40.341Z,10.60
2023-01-23T08:57:12.362Z,10.60
2023-01-23T08:59:44.461Z,10.60
2023-01-23T09:02:18.708Z,10.60
2023-01-23T09:05:01.954Z,10.60
2023-01-23T09:07:30.663Z,10.60
2023-01-23T09:09:57.768Z,10.60
2023-01-23T09:12:24.956Z,10.60
2023-01-23T09:14:52.062Z,10.60
2023-01-23T09:17:22.757Z,10.60
2023-01-23T09:19:49.945Z,10.50
2023-01-23T09:22:17.758Z,10.50
2023-01-23T09:24:47.064Z,10.50
2023-01-23T09:27:14.511Z,10.50
2023-01-23T09:29:52.729Z,10.50
2023-01-23T09:32:25.496Z,10.50
2023-01-23T09:34:55.285Z,10.50
2023-01-23T09:37:22.649Z,10.60
2023-01-23T09:39:49.839Z,10.60
2023-01-23T09:42:27.901Z,10.70
2023-01-23T09:45:01.291Z,10.80
2023-01-23T09:47:32.264Z,10.80
2023-01-23T09:50:22.113Z,10.80
2023-01-23T09:53:00.426Z,10.80
2023-01-23T09:55:49.191Z,10.80
2023-01-23T09:58:24.460Z,10.80
2023-01-23T10:00:52.289Z,10.80
2023-01-23T10:03:20.415Z,10.80
2023-01-23T10:06:06.534Z,11.00
2023-01-23T10:08:33.916Z,10.90
2023-01-23T10:11:19.909Z,11.00
2023-01-23T10:14:08.720Z,10.90
2023-01-23T10:16:50.803Z,10.90
2023-01-23T10:19:21.277Z,11.00
2023-01-23T10:22:22.836Z,11.20
2023-01-23T10:24:57.703Z,11.20
2023-01-23T10:27:38.419Z,11.50
2023-01-23T10:30:13.961Z,11.40
2023-01-23T10:32:59.923Z,11.50
2023-01-23T10:35:39.837Z,11.50
2023-01-23T10:38:22.462Z,11.50
2023-01-23T10:41:10.579Z,11.50
2023-01-23T10:43:37.916Z,11.50
2023-01-23T10:46:19.121Z,11.50
2023-01-23T10:48:51.564Z,11.60
2023-01-23T10:51:37.067Z,11.60
2023-01-23T10:54:25.995Z,11.70
2023-01-23T10:57:04.835Z,11.60
2023-01-23T11:00:02.231Z,11.70
2023-01-23T11:02:35.299Z,11.70
2023-01-23T11:05:23.262Z,11.60
2023-01-23T11:08:00.068Z,11.50
2023-01-23T11:10:27.521Z,11.50
2023-01-23T11:13:00.593Z,11.50
2023-01-23T11:15:29.348Z,11.50
2023-01-23T11:18:01.319Z,11.60
2023-01-23T11:20:37.537Z,11.50
2023-01-23T11:23:14.721Z,11.50
2023-01-23T11:26:03.406Z,11.50
2023-01-23T11:28:35.317Z,11.50
2023-01-23T11:31:14.662Z,11.50
2023-01-23T11:34:03.007Z,11.60
2023-01-23T11:36:40.673Z,11.60
2023-01-23T11:39:19.303Z,11.60
2023-01-23T11:41:48.606Z,11.50
2023-01-23T11:44:23.713Z,11.60
2023-01-23T11:47:23.794Z,11.60
2023-01-23T11:50:25.564Z,11.50
2023-01-23T11:52:58.539Z,11.50
2023-01-23T11:56:03.287Z,11.60
2023-01-23T11:58:52.127Z,11.50
2023-01-23T12:02:03.939Z,11.60
2023-01-23T12:05:01.325Z,11.50
2023-01-23T12:07:33.064Z,11.50
2023-01-23T12:10:26.794Z,11.60
2023-01-23T12:13:32.139Z,11.50
2023-01-23T12:16:20.598Z,11.40
2023-01-23T12:19:15.060Z,11.50
2023-01-23T12:22:03.590Z,11.40
2023-01-23T12:24:45.694Z,11.30
2023-01-23T12:27:45.407Z,11.40
2023-01-23T12:30:45.508Z,11.40
2023-01-23T12:33:32.682Z,11.40
2023-01-23T12:36:19.456Z,11.40
2023-01-23T12:39:03.225Z,11.50
2023-01-23T12:41:38.071Z,11.50
2023-01-23T12:44:17.297Z,11.50
2023-01-23T12:47:04.589Z,11.50
2023-01-23T12:50:18.228Z,11.50
2023-01-23T12:52:57.950Z,11.50
2023-01-23T12:55:36.910Z,11.50
2023-01-23T12:58:13.274Z,11.50
2023-01-23T13:00:52.222Z,11.40
2023-01-23T13:03:22.951Z,11.50
2023-01-23T13:06:02.274Z,11.40
2023-01-23T13:08:40.554Z,11.50
2023-01-23T13:11:42.380Z,11.60
2023-01-23T13:15:03.543Z,11.50
2023-01-23T13:17:42.023Z,11.60
2023-01-23T13:20:42.144Z,11.60
2023-01-23T13:23:29.343Z,11.60
2023-01-23T13:26:16.862Z,11.70
2023-01-23T13:28:47.160Z,11.60
2023-01-23T13:31:44.026Z,11.60
2023-01-23T13:34:19.881Z,11.60
2023-01-23T13:36:55.211Z,11.60
2023-01-23T13:39:30.044Z,11.60
2023-01-23T13:42:16.691Z,11.70
2023-01-23T13:45:29.447Z,11.70
2023-01-23T14:20:40.454Z,11.30
2023-01-23T14:26:14.164Z,11.30
2023-01-23T14:29:06.379Z,11.30
2023-01-23T14:31:49.480Z,11.20
2023-01-23T14:34:31.945Z,11.10
2023-01-23T14:37:13.336Z,11.10
2023-01-23T14:39:53.215Z,11.00
2023-01-23T14:42:32.779Z,11.00
2023-01-23T14:45:02.408Z,11.00
2023-01-23T14:47:46.982Z,11.00
2023-01-23T14:50:25.717Z,10.90
2023-01-23T14:53:12.058Z,10.80
2023-01-23T14:55:46.753Z,10.80
2023-01-23T14:58:29.474Z,10.60
2023-01-23T15:00:58.992Z,10.70
2023-01-23T15:03:41.006Z,10.70
2023-01-23T15:06:19.587Z,10.60
2023-01-23T15:08:48.302Z,10.60
2023-01-23T15:11:16.188Z,10.40
2023-01-23T15:13:51.725Z,10.40
2023-01-23T15:16:31.905Z,10.40
2023-01-23T15:19:03.927Z,10.30
2023-01-23T15:21:42.365Z,10.30
2023-01-23T15:24:12.786Z,10.10
2023-01-23T15:26:44.186Z,10.20
2023-01-23T15:29:11.414Z,10.40
2023-01-23T15:31:41.872Z,10.30
2023-01-23T15:34:15.108Z,10.40
2023-01-23T15:36:50.920Z,10.30
2023-01-23T15:39:36.691Z,10.40
2023-01-23T15:42:27.421Z,10.30
2023-01-23T15:44:56.674Z,10.30
2023-01-23T15:47:23.899Z,10.20
2023-01-23T15:49:54.340Z,10.20
2023-01-23T15:52:28.759Z,10.10
2023-01-23T15:55:04.335Z,10.10
2023-01-23T15:57:34.067Z,10.10
2023-01-23T16:00:01.697Z,10.10
2023-01-23T16:02:31.487Z,10.10
2023-01-23T16:05:01.300Z,10.20
2023-01-23T16:07:37.145Z,10.20
2023-01-23T16:10:23.485Z,10.10
2023-01-23T16:12:54.773Z,10.10
2023-01-23T16:15:25.035Z,10.20
2023-01-23T16:17:52.825Z,10.20
2023-01-23T16:20:27.493Z,10.20
2023-01-23T16:23:01.836Z,10.50
2023-01-23T16:25:45.375Z,10.30
2023-01-23T16:28:19.278Z,10.30
2023-01-23T16:30:47.421Z,10.10
2023-01-23T16:33:15.375Z,10.30
2023-01-23T16:35:48.209Z,10.20
2023-01-23T16:38:28.186Z,10.20
2023-01-23T16:40:59.658Z,10.20
2023-01-23T16:43:29.533Z,10.40
2023-01-23T16:45:57.962Z,10.50
2023-01-23T16:48:28.048Z,10.50
2023-01-23T16:51:16.183Z,10.60
2023-01-23T16:53:49.072Z,10.60
2023-01-23T16:56:34.512Z,10.40
2023-01-23T16:59:07.979Z,10.30
2023-01-23T17:01:40.419Z,10.30
2023-01-23T17:04:19.597Z,10.20
2023-01-23T17:06:48.338Z,10.30
2023-01-23T17:09:18.855Z,10.30
2023-01-23T17:11:51.624Z,10.20
2023-01-23T17:14:31.527Z,10.30
2023-01-23T17:17:05.552Z,10.20
2023-01-23T17:19:40.251Z,10.20
2023-01-23T17:22:18.515Z,10.10
2023-01-23T17:24:45.993Z,10.10
2023-01-23T17:27:13.483Z,10.10
2023-01-23T17:30:17.643Z,10.10
2023-01-23T17:33:26.163Z,10.20
2023-01-23T17:37:57.177Z,10.10
2023-01-23T17:39:28.788Z,10.20
2023-01-23T17:42:18.216Z,10.30
2023-01-23T17:44:56.820Z,10.20
2023-01-23T17:47:24.396Z,10.30
2023-01-23T17:49:55.016Z,10.40
2023-01-23T17:52:22.204Z,10.30
2023-01-23T17:54:53.363Z,10.30
2023-01-23T17:57:21.663Z,10.30
2023-01-23T17:59:56.553Z,10.30
2023-01-23T18:02:25.976Z,10.30
2023-01-23T18:04:53.259Z,10.20
2023-01-23T18:07:20.514Z,10.20
2023-01-23T18:09:47.650Z,10.20
2023-01-23T18:12:45.143Z,10.20
2023-01-23T18:15:30.489Z,10.00
2023-01-23T18:18:03.513Z,10.20
2023-01-23T18:20:32.669Z,10.20
2023-01-23T18:23:00.766Z,10.00
2023-01-23T18:25:28.350Z,10.10
2023-01-23T18:27:58.100Z,10.10
2023-01-23T18:30:42.787Z,10.20
2023-01-23T18:33:27.280Z,10.20
2023-01-23T18:36:22.143Z,10.20
2023-01-23T18:39:18.617Z,10.20
2023-01-23T18:42:03.184Z,9.90
2023-01-23T18:44:35.104Z,9.90
2023-01-23T18:47:05.762Z,10.00
2023-01-23T18:49:33.600Z,10.10
2023-01-23T18:52:26.843Z,10.10
2023-01-23T18:55:15.127Z,10.10
2023-01-23T18:58:43.813Z,10.10
2023-01-23T19:01:39.029Z,9.90
2023-01-23T19:04:14.088Z,9.60
2023-01-23T19:06:41.936Z,9.70
2023-01-23T19:09:20.070Z,9.80
2023-01-23T19:12:24.974Z,9.90
2023-01-23T19:14:58.946Z,9.70
2023-01-23T19:17:46.407Z,9.80
2023-01-23T19:20:45.930Z,9.90
2023-01-23T19:23:25.037Z,10.00
2023-01-23T19:25:52.320Z,10.00
2023-01-23T19:28:19.858Z,10.00
2023-01-23T19:30:47.271Z,10.00
2023-01-23T19:33:18.781Z,10.00
2023-01-23T19:35:47.648Z,10.00
2023-01-23T19:38:18.003Z,10.10
2023-01-23T19:40:46.024Z,10.00
2023-01-23T19:43:17.687Z,10.00
2023-01-23T19:45:45.944Z,10.10
2023-01-23T19:48:18.921Z,10.10
2023-01-23T19:50:50.239Z,10.20
2023-01-23T19:53:19.412Z,10.20
2023-01-23T19:55:52.342Z,10.20
2023-01-23T19:58:19.453Z,10.30
2023-01-23T20:00:47.274Z,10.20
2023-01-23T20:03:14.852Z,9.80
2023-01-23T20:05:41.998Z,9.90
2023-01-23T20:08:09.998Z,9.90
2023-01-23T20:10:37.256Z,10.00
2023-01-23T20:13:12.726Z,10.00
2023-01-23T20:15:43.056Z,10.00
2023-01-23T20:18:11.830Z,10.00
2023-01-23T20:20:39.286Z,10.10
2023-01-23T20:23:06.841Z,9.80
2023-01-23T20:25:34.201Z,9.60
2023-01-23T20:28:01.566Z,9.40
2023-01-23T20:30:29.530Z,9.40
2023-01-23T20:35:30.799Z,9.60
2023-01-23T20:37:58.348Z,9.80
2023-01-23T20:40:28.283Z,9.80
2023-01-23T20:42:55.454Z,9.80
2023-01-23T20:45:24.821Z,9.80
2023-01-23T20:48:04.649Z,9.90
2023-01-23T20:50:33.643Z,9.80
2023-01-23T20:53:20.009Z,9.60
2023-01-23T20:55:53.832Z,9.60
2023-01-23T20:58:42.272Z,9.80
2023-01-23T21:01:12.867Z,9.80
2023-01-23T21:03:41.729Z,9.80
2023-01-23T21:06:10.958Z,9.70
2023-01-23T21:08:38.800Z,9.60
2023-01-23T21:11:11.841Z,9.50
2023-01-23T21:13:39.783Z,9.60
2023-01-23T21:16:10.601Z,9.70
2023-01-23T21:18:41.351Z,9.70
2023-01-23T21:21:10.343Z,9.50
2023-01-23T21:23:37.535Z,9.40
2023-01-23T21:26:05.239Z,9.50
2023-01-23T21:28:35.656Z,9.50
2023-01-23T21:31:30.378Z,9.40
2023-01-23T21:34:00.506Z,9.30
2023-01-23T21:36:28.405Z,9.30
2023-01-23T21:38:56.665Z,9.30
2023-01-23T21:41:26.949Z,9.20
2023-01-23T21:43:54.179Z,9.30
2023-01-23T21:46:21.776Z,9.30
2023-01-23T21:48:49.143Z,9.50
2023-01-23T21:51:19.678Z,9.50
2023-01-23T21:53:53.645Z,9.60
2023-01-23T21:56:44.703Z,9.60
2023-01-23T21:59:13.060Z,9.60
2023-01-23T22:01:53.028Z,9.60
2023-01-23T22:04:23.914Z,9.60
2023-01-23T22:06:54.227Z,9.30
2023-01-23T22:09:24.832Z,9.30
2023-01-23T22:11:52.196Z,9.50
2023-01-23T22:14:20.799Z,9.50
2023-01-23T22:16:50.083Z,9.20
2023-01-23T22:19:20.991Z,9.10
2023-01-23T22:21:49.498Z,9.20
2023-01-23T22:24:20.159Z,9.30
2023-01-23T22:26:53.019Z,9.50
2023-01-23T22:29:20.102Z,9.50
2023-01-23T22:31:47.335Z,9.50
2023-01-23T22:34:14.664Z,9.50
2023-01-23T22:36:41.802Z,9.50
2023-01-23T22:39:09.066Z,9.50
2023-01-23T22:41:36.243Z,9.40
2023-01-23T22:44:03.440Z,9.50
2023-01-23T22:46:32.450Z,9.50
2023-01-23T22:48:59.776Z,9.60
2023-01-23T22:51:28.080Z,9.60
2023-01-23T22:53:56.367Z,9.70
2023-01-23T22:56:25.188Z,9.40
2023-01-23T22:58:54.511Z,9.20
2023-01-23T23:01:23.515Z,9.30
2023-01-23T23:03:51.251Z,9.40
2023-01-23T23:06:19.303Z,9.50
2023-01-23T23:08:48.114Z,9.40
2023-01-23T23:11:20.792Z,9.50
2023-01-23T23:13:48.757Z,9.10
2023-01-23T23:16:18.849Z,9.10
2023-01-23T23:18:48.029Z,9.20
2023-01-23T23:21:17.576Z,9.20
2023-01-23T23:23:46.711Z,9.30
2023-01-23T23:26:14.637Z,9.10
2023-01-23T23:28:42.111Z,9.10
2023-01-23T23:31:10.488Z,8.80
2023-01-23T23:33:38.392Z,9.00
2023-01-23T23:36:06.837Z,9.00
2023-01-23T23:38:34.065Z,8.90
2023-01-23T23:41:04.219Z,8.80
2023-01-23T23:43:31.908Z,9.00
2023-01-23T23:46:01.121Z,9.10
2023-01-23T23:48:30.361Z,9.10
2023-01-23T23:51:00.303Z,9.10
2023-01-23T23:53:27.965Z,8.80
2023-01-23T23:55:55.601Z,8.90
2023-01-23T23:58:26.013Z,8.80
